sensor_id;sensor_type;location;lat;lon;timestamp;P1;durP1;ratioP1;P2;durP2;ratioP2
30539;SDS011;17321;46.312;4.776;2023-03-11T00:01:31;10.73;;;2.90;;
30539;SDS011;17321;46.312;4.776;2023-03-11T00:03:57;9.38;;;2.78;;
30539;SDS011;17321;46.312;4.776;2023-03-11T00:06:24;10.15;;;2.65;;
30539;SDS011;17321;46.312;4.776;2023-03-11T00:08:51;11.25;;;2.90;;
30539;SDS011;17321;46.312;4.776;2023-03-11T00:11:17;6.38;;;2.80;;
30539;SDS011;17321;46.312;4.776;2023-03-11T00:13:43;10.35;;;3.05;;
30539;SDS011;17321;46.312;4.776;2023-03-11T00:16:09;11.80;;;3.03;;
30539;SDS011;17321;46.312;4.776;2023-03-11T00:18:36;10.20;;;3.72;;
30539;SDS011;17321;46.312;4.776;2023-03-11T00:21:02;9.73;;;3.65;;
30539;SDS011;17321;46.312;4.776;2023-03-11T00:23:28;10.20;;;3.70;;
30539;SDS011;17321;46.312;4.776;2023-03-11T00:25:54;6.07;;;2.30;;
30539;SDS011;17321;46.312;4.776;2023-03-11T00:28:20;10.13;;;3.38;;
30539;SDS011;17321;46.312;4.776;2023-03-11T00:30:49;6.18;;;3.08;;
30539;SDS011;17321;46.312;4.776;2023-03-11T00:33:15;9.60;;;3.50;;
30539;SDS011;17321;46.312;4.776;2023-03-11T00:35:42;10.43;;;2.53;;
30539;SDS011;17321;46.312;4.776;2023-03-11T00:38:10;6.38;;;3.10;;
30539;SDS011;17321;46.312;4.776;2023-03-11T00:40:37;9.48;;;3.70;;
30539;SDS011;17321;46.312;4.776;2023-03-11T00:43:04;5.35;;;2.75;;
30539;SDS011;17321;46.312;4.776;2023-03-11T00:45:30;12.23;;;3.42;;
30539;SDS011;17321;46.312;4.776;2023-03-11T00:47:56;8.45;;;3.10;;
30539;SDS011;17321;46.312;4.776;2023-03-11T00:50:24;6.55;;;3.15;;
30539;SDS011;17321;46.312;4.776;2023-03-11T00:52:50;11.32;;;3.70;;
30539;SDS011;17321;46.312;4.776;2023-03-11T00:55:21;11.45;;;3.72;;
30539;SDS011;17321;46.312;4.776;2023-03-11T00:57:49;6.68;;;3.28;;
30539;SDS011;17321;46.312;4.776;2023-03-11T01:00:16;8.27;;;3.80;;
30539;SDS011;17321;46.312;4.776;2023-03-11T01:02:43;7.32;;;3.72;;
30539;SDS011;17321;46.312;4.776;2023-03-11T01:05:09;7.38;;;3.40;;
30539;SDS011;17321;46.312;4.776;2023-03-11T01:07:36;8.98;;;4.38;;
30539;SDS011;17321;46.312;4.776;2023-03-11T01:10:02;7.80;;;3.58;;
30539;SDS011;17321;46.312;4.776;2023-03-11T01:12:29;8.27;;;3.67;;
30539;SDS011;17321;46.312;4.776;2023-03-11T01:14:55;8.60;;;3.30;;
30539;SDS011;17321;46.312;4.776;2023-03-11T01:17:21;10.27;;;3.40;;
30539;SDS011;17321;46.312;4.776;2023-03-11T01:19:47;10.65;;;3.75;;
30539;SDS011;17321;46.312;4.776;2023-03-11T01:22:14;4.88;;;3.38;;
30539;SDS011;17321;46.312;4.776;2023-03-11T01:24:40;8.20;;;3.78;;
30539;SDS011;17321;46.312;4.776;2023-03-11T01:27:06;10.00;;;3.90;;
30539;SDS011;17321;46.312;4.776;2023-03-11T01:29:33;8.95;;;3.63;;
30539;SDS011;17321;46.312;4.776;2023-03-11T01:31:59;9.10;;;4.22;;
30539;SDS011;17321;46.312;4.776;2023-03-11T01:34:25;11.57;;;4.28;;
30539;SDS011;17321;46.312;4.776;2023-03-11T01:36:51;9.60;;;3.40;;
30539;SDS011;17321;46.312;4.776;2023-03-11T01:39:17;10.10;;;3.78;;
30539;SDS011;17321;46.312;4.776;2023-03-11T01:41:43;6.18;;;3.15;;
30539;SDS011;17321;46.312;4.776;2023-03-11T01:44:12;9.38;;;3.17;;
30539;SDS011;17321;46.312;4.776;2023-03-11T01:49:17;5.72;;;2.50;;
30539;SDS011;17321;46.312;4.776;2023-03-11T01:51:43;8.38;;;3.15;;
30539;SDS011;17321;46.312;4.776;2023-03-11T01:54:30;7.05;;;2.35;;
30539;SDS011;17321;46.312;4.776;2023-03-11T01:56:58;5.60;;;2.55;;
30539;SDS011;17321;46.312;4.776;2023-03-11T01:59:29;4.10;;;1.80;;
30539;SDS011;17321;46.312;4.776;2023-03-11T02:02:07;7.97;;;2.92;;
30539;SDS011;17321;46.312;4.776;2023-03-11T02:04:35;11.53;;;3.93;;
30539;SDS011;17321;46.312;4.776;2023-03-11T02:07:01;10.77;;;3.70;;
30539;SDS011;17321;46.312;4.776;2023-03-11T02:09:28;6.38;;;2.88;;
30539;SDS011;17321;46.312;4.776;2023-03-11T02:11:54;8.10;;;3.22;;
30539;SDS011;17321;46.312;4.776;2023-03-11T02:14:20;7.20;;;2.53;;
30539;SDS011;17321;46.312;4.776;2023-03-11T02:16:48;7.13;;;3.30;;
30539;SDS011;17321;46.312;4.776;2023-03-11T02:19:17;5.53;;;2.92;;
30539;SDS011;17321;46.312;4.776;2023-03-11T02:21:47;5.80;;;2.38;;
30539;SDS011;17321;46.312;4.776;2023-03-11T02:24:26;6.85;;;3.65;;
30539;SDS011;17321;46.312;4.776;2023-03-11T02:29:21;5.68;;;2.83;;
30539;SDS011;17321;46.312;4.776;2023-03-11T02:31:48;5.70;;;2.28;;
30539;SDS011;17321;46.312;4.776;2023-03-11T02:34:22;4.40;;;2.42;;
30539;SDS011;17321;46.312;4.776;2023-03-11T02:36:49;6.72;;;2.83;;
30539;SDS011;17321;46.312;4.776;2023-03-11T02:39:15;6.18;;;2.55;;
30539;SDS011;17321;46.312;4.776;2023-03-11T02:41:43;3.20;;;2.22;;
30539;SDS011;17321;46.312;4.776;2023-03-11T02:44:09;6.80;;;3.17;;
30539;SDS011;17321;46.312;4.776;2023-03-11T02:46:36;7.13;;;3.10;;
30539;SDS011;17321;46.312;4.776;2023-03-11T02:49:03;6.80;;;2.53;;
30539;SDS011;17321;46.312;4.776;2023-03-11T02:51:30;3.20;;;2.40;;
30539;SDS011;17321;46.312;4.776;2023-03-11T02:53:57;5.15;;;2.50;;
30539;SDS011;17321;46.312;4.776;2023-03-11T02:56:24;3.88;;;2.40;;
30539;SDS011;17321;46.312;4.776;2023-03-11T02:58:50;4.88;;;2.00;;
30539;SDS011;17321;46.312;4.776;2023-03-11T03:01:17;4.90;;;3.13;;
30539;SDS011;17321;46.312;4.776;2023-03-11T03:03:43;6.00;;;2.65;;
30539;SDS011;17321;46.312;4.776;2023-03-11T03:06:09;6.50;;;3.63;;
30539;SDS011;17321;46.312;4.776;2023-03-11T03:08:35;7.05;;;4.15;;
30539;SDS011;17321;46.312;4.776;2023-03-11T03:11:01;4.28;;;3.17;;
30539;SDS011;17321;46.312;4.776;2023-03-11T03:13:27;6.35;;;3.53;;
30539;SDS011;17321;46.312;4.776;2023-03-11T03:15:54;8.27;;;3.97;;
30539;SDS011;17321;46.312;4.776;2023-03-11T03:18:21;7.22;;;4.45;;
30539;SDS011;17321;46.312;4.776;2023-03-11T03:20:47;6.63;;;3.88;;
30539;SDS011;17321;46.312;4.776;2023-03-11T03:23:13;8.93;;;3.88;;
30539;SDS011;17321;46.312;4.776;2023-03-11T03:25:42;8.10;;;4.68;;
30539;SDS011;17321;46.312;4.776;2023-03-11T03:28:09;5.45;;;4.00;;
30539;SDS011;17321;46.312;4.776;2023-03-11T03:30:35;8.60;;;4.10;;
30539;SDS011;17321;46.312;4.776;2023-03-11T03:33:02;6.10;;;3.97;;
30539;SDS011;17321;46.312;4.776;2023-03-11T03:35:28;7.20;;;4.30;;
30539;SDS011;17321;46.312;4.776;2023-03-11T03:37:54;6.53;;;4.10;;
30539;SDS011;17321;46.312;4.776;2023-03-11T03:40:20;6.60;;;4.38;;
30539;SDS011;17321;46.312;4.776;2023-03-11T03:42:46;5.57;;;3.65;;
30539;SDS011;17321;46.312;4.776;2023-03-11T03:45:12;5.88;;;3.78;;
30539;SDS011;17321;46.312;4.776;2023-03-11T03:47:38;6.25;;;4.10;;
30539;SDS011;17321;46.312;4.776;2023-03-11T03:50:05;9.30;;;3.80;;
30539;SDS011;17321;46.312;4.776;2023-03-11T03:52:32;8.30;;;3.45;;
30539;SDS011;17321;46.312;4.776;2023-03-11T03:54:59;4.38;;;3.97;;
30539;SDS011;17321;46.312;4.776;2023-03-11T03:57:26;7.45;;;4.18;;
30539;SDS011;17321;46.312;4.776;2023-03-11T03:59:53;6.60;;;4.15;;
30539;SDS011;17321;46.312;4.776;2023-03-11T04:02:19;5.28;;;4.68;;
30539;SDS011;17321;46.312;4.776;2023-03-11T04:04:45;8.30;;;4.10;;
30539;SDS011;17321;46.312;4.776;2023-03-11T04:07:11;6.18;;;3.83;;
30539;SDS011;17321;46.312;4.776;2023-03-11T04:09:38;5.50;;;4.22;;
30539;SDS011;17321;46.312;4.776;2023-03-11T04:12:04;7.80;;;4.47;;
30539;SDS011;17321;46.312;4.776;2023-03-11T04:14:30;9.65;;;5.68;;
30539;SDS011;17321;46.312;4.776;2023-03-11T04:16:56;7.78;;;5.50;;
30539;SDS011;17321;46.312;4.776;2023-03-11T04:19:23;8.35;;;5.22;;
30539;SDS011;17321;46.312;4.776;2023-03-11T04:21:50;7.95;;;5.97;;
30539;SDS011;17321;46.312;4.776;2023-03-11T04:24:16;11.73;;;6.97;;
30539;SDS011;17321;46.312;4.776;2023-03-11T04:26:43;8.30;;;5.63;;
30539;SDS011;17321;46.312;4.776;2023-03-11T04:29:09;7.50;;;5.47;;
30539;SDS011;17321;46.312;4.776;2023-03-11T04:31:35;5.53;;;5.03;;
30539;SDS011;17321;46.312;4.776;2023-03-11T04:34:01;10.70;;;5.25;;
30539;SDS011;17321;46.312;4.776;2023-03-11T04:36:27;9.93;;;5.38;;
30539;SDS011;17321;46.312;4.776;2023-03-11T04:38:54;5.32;;;4.75;;
30539;SDS011;17321;46.312;4.776;2023-03-11T04:41:21;5.72;;;4.70;;
30539;SDS011;17321;46.312;4.776;2023-03-11T04:43:47;6.00;;;5.25;;
30539;SDS011;17321;46.312;4.776;2023-03-11T04:46:13;7.25;;;5.03;;
30539;SDS011;17321;46.312;4.776;2023-03-11T04:48:39;5.40;;;4.90;;
30539;SDS011;17321;46.312;4.776;2023-03-11T04:51:06;5.47;;;4.43;;
30539;SDS011;17321;46.312;4.776;2023-03-11T04:53:32;4.55;;;4.10;;
30539;SDS011;17321;46.312;4.776;2023-03-11T04:55:58;3.17;;;2.70;;
30539;SDS011;17321;46.312;4.776;2023-03-11T04:58:24;3.35;;;2.95;;
30539;SDS011;17321;46.312;4.776;2023-03-11T05:00:51;2.97;;;2.78;;
30539;SDS011;17321;46.312;4.776;2023-03-11T05:03:17;2.65;;;2.35;;
30539;SDS011;17321;46.312;4.776;2023-03-11T05:05:44;3.38;;;3.08;;
30539;SDS011;17321;46.312;4.776;2023-03-11T05:08:10;2.97;;;2.78;;
30539;SDS011;17321;46.312;4.776;2023-03-11T05:10:38;3.17;;;2.72;;
30539;SDS011;17321;46.312;4.776;2023-03-11T05:13:04;2.92;;;2.45;;
30539;SDS011;17321;46.312;4.776;2023-03-11T05:15:30;2.70;;;2.50;;
30539;SDS011;17321;46.312;4.776;2023-03-11T05:17:56;4.22;;;1.88;;
30539;SDS011;17321;46.312;4.776;2023-03-11T05:20:23;1.50;;;1.40;;
30539;SDS011;17321;46.312;4.776;2023-03-11T05:22:49;2.10;;;1.23;;
30539;SDS011;17321;46.312;4.776;2023-03-11T05:25:15;1.95;;;1.17;;
30539;SDS011;17321;46.312;4.776;2023-03-11T05:27:41;0.60;;;0.60;;
30539;SDS011;17321;46.312;4.776;2023-03-11T05:30:07;1.13;;;0.93;;
30539;SDS011;17321;46.312;4.776;2023-03-11T05:32:34;2.25;;;0.75;;
30539;SDS011;17321;46.312;4.776;2023-03-11T05:35:00;1.17;;;0.95;;
30539;SDS011;17321;46.312;4.776;2023-03-11T05:37:26;1.75;;;0.80;;
30539;SDS011;17321;46.312;4.776;2023-03-11T05:39:52;0.90;;;0.80;;
30539;SDS011;17321;46.312;4.776;2023-03-11T05:42:19;2.80;;;0.90;;
30539;SDS011;17321;46.312;4.776;2023-03-11T05:44:45;3.47;;;0.80;;
30539;SDS011;17321;46.312;4.776;2023-03-11T05:47:11;0.55;;;0.55;;
30539;SDS011;17321;46.312;4.776;2023-03-11T05:49:37;3.50;;;0.52;;
30539;SDS011;17321;46.312;4.776;2023-03-11T05:52:03;1.73;;;0.70;;
30539;SDS011;17321;46.312;4.776;2023-03-11T05:54:29;1.02;;;0.93;;
30539;SDS011;17321;46.312;4.776;2023-03-11T05:56:56;0.82;;;0.65;;
30539;SDS011;17321;46.312;4.776;2023-03-11T05:59:22;0.45;;;0.45;;
30539;SDS011;17321;46.312;4.776;2023-03-11T06:01:48;0.40;;;0.40;;
30539;SDS011;17321;46.312;4.776;2023-03-11T06:04:14;0.30;;;0.30;;
30539;SDS011;17321;46.312;4.776;2023-03-11T06:06:40;1.00;;;0.40;;
30539;SDS011;17321;46.312;4.776;2023-03-11T06:09:10;1.50;;;0.43;;
30539;SDS011;17321;46.312;4.776;2023-03-11T06:11:37;0.82;;;0.77;;
30539;SDS011;17321;46.312;4.776;2023-03-11T06:14:03;0.70;;;0.45;;
30539;SDS011;17321;46.312;4.776;2023-03-11T06:16:29;0.40;;;0.40;;
30539;SDS011;17321;46.312;4.776;2023-03-11T06:18:55;1.85;;;0.32;;
30539;SDS011;17321;46.312;4.776;2023-03-11T06:21:24;0.20;;;0.20;;
30539;SDS011;17321;46.312;4.776;2023-03-11T06:23:51;0.32;;;0.32;;
30539;SDS011;17321;46.312;4.776;2023-03-11T06:26:18;0.40;;;0.30;;
30539;SDS011;17321;46.312;4.776;2023-03-11T06:28:45;0.32;;;0.32;;
30539;SDS011;17321;46.312;4.776;2023-03-11T06:31:15;0.43;;;0.40;;
30539;SDS011;17321;46.312;4.776;2023-03-11T06:33:41;7.90;;;0.40;;
30539;SDS011;17321;46.312;4.776;2023-03-11T06:36:09;0.30;;;0.30;;
30539;SDS011;17321;46.312;4.776;2023-03-11T06:38:35;0.30;;;0.30;;
30539;SDS011;17321;46.312;4.776;2023-03-11T06:41:02;0.35;;;0.20;;
30539;SDS011;17321;46.312;4.776;2023-03-11T06:43:29;0.20;;;0.20;;
30539;SDS011;17321;46.312;4.776;2023-03-11T06:45:55;0.50;;;0.50;;
30539;SDS011;17321;46.312;4.776;2023-03-11T06:48:21;0.52;;;0.50;;
30539;SDS011;17321;46.312;4.776;2023-03-11T06:50:54;0.77;;;0.60;;
30539;SDS011;17321;46.312;4.776;2023-03-11T06:53:20;0.70;;;0.60;;
30539;SDS011;17321;46.312;4.776;2023-03-11T06:56:06;1.00;;;1.00;;
30539;SDS011;17321;46.312;4.776;2023-03-11T06:58:32;0.80;;;0.80;;
30539;SDS011;17321;46.312;4.776;2023-03-11T07:01:00;1.15;;;1.05;;
30539;SDS011;17321;46.312;4.776;2023-03-11T07:03:26;1.75;;;1.20;;
30539;SDS011;17321;46.312;4.776;2023-03-11T07:05:52;1.02;;;0.93;;
30539;SDS011;17321;46.312;4.776;2023-03-11T07:08:18;1.50;;;1.40;;
30539;SDS011;17321;46.312;4.776;2023-03-11T07:10:44;1.83;;;1.20;;
30539;SDS011;17321;46.312;4.776;2023-03-11T07:13:12;1.20;;;1.10;;
30539;SDS011;17321;46.312;4.776;2023-03-11T07:15:38;1.27;;;0.98;;
30539;SDS011;17321;46.312;4.776;2023-03-11T07:18:04;1.48;;;1.20;;
30539;SDS011;17321;46.312;4.776;2023-03-11T07:20:30;0.90;;;0.90;;
30539;SDS011;17321;46.312;4.776;2023-03-11T07:22:57;0.73;;;0.73;;
30539;SDS011;17321;46.312;4.776;2023-03-11T07:25:23;1.15;;;1.10;;
30539;SDS011;17321;46.312;4.776;2023-03-11T07:27:49;1.15;;;1.05;;
30539;SDS011;17321;46.312;4.776;2023-03-11T07:30:15;0.63;;;0.63;;
30539;SDS011;17321;46.312;4.776;2023-03-11T07:32:41;2.38;;;1.20;;
30539;SDS011;17321;46.312;4.776;2023-03-11T07:35:07;1.40;;;1.30;;
30539;SDS011;17321;46.312;4.776;2023-03-11T07:37:33;2.05;;;1.33;;
30539;SDS011;17321;46.312;4.776;2023-03-11T07:40:00;1.50;;;1.40;;
30539;SDS011;17321;46.312;4.776;2023-03-11T07:42:26;1.70;;;1.60;;
30539;SDS011;17321;46.312;4.776;2023-03-11T07:44:52;1.58;;;1.48;;
30539;SDS011;17321;46.312;4.776;2023-03-11T07:47:18;2.85;;;1.75;;
30539;SDS011;17321;46.312;4.776;2023-03-11T07:49:44;2.10;;;1.90;;
30539;SDS011;17321;46.312;4.776;2023-03-11T07:52:10;2.10;;;1.90;;
30539;SDS011;17321;46.312;4.776;2023-03-11T07:54:36;1.63;;;1.52;;
30539;SDS011;17321;46.312;4.776;2023-03-11T07:57:02;1.77;;;1.67;;
30539;SDS011;17321;46.312;4.776;2023-03-11T07:59:29;1.63;;;1.52;;
30539;SDS011;17321;46.312;4.776;2023-03-11T08:01:55;2.40;;;1.92;;
30539;SDS011;17321;46.312;4.776;2023-03-11T08:04:21;1.80;;;1.70;;
30539;SDS011;17321;46.312;4.776;2023-03-11T08:06:47;2.88;;;1.85;;
30539;SDS011;17321;46.312;4.776;2023-03-11T08:09:14;1.92;;;1.83;;
30539;SDS011;17321;46.312;4.776;2023-03-11T08:11:40;2.60;;;2.40;;
30539;SDS011;17321;46.312;4.776;2023-03-11T08:14:06;1.98;;;1.67;;
30539;SDS011;17321;46.312;4.776;2023-03-11T08:16:32;1.92;;;1.70;;
30539;SDS011;17321;46.312;4.776;2023-03-11T08:18:58;1.83;;;1.45;;
30539;SDS011;17321;46.312;4.776;2023-03-11T08:21:26;2.00;;;1.90;;
30539;SDS011;17321;46.312;4.776;2023-03-11T08:23:55;1.67;;;1.25;;
30539;SDS011;17321;46.312;4.776;2023-03-11T08:26:22;1.58;;;1.48;;
30539;SDS011;17321;46.312;4.776;2023-03-11T08:28:49;1.70;;;1.60;;
30539;SDS011;17321;46.312;4.776;2023-03-11T08:31:16;1.65;;;1.55;;
30539;SDS011;17321;46.312;4.776;2023-03-11T08:33:43;1.92;;;1.83;;
30539;SDS011;17321;46.312;4.776;2023-03-11T08:36:10;2.28;;;2.05;;
30539;SDS011;17321;46.312;4.776;2023-03-11T08:38:36;4.43;;;1.80;;
30539;SDS011;17321;46.312;4.776;2023-03-11T08:41:03;2.25;;;2.05;;
30539;SDS011;17321;46.312;4.776;2023-03-11T08:43:29;1.92;;;1.73;;
30539;SDS011;17321;46.312;4.776;2023-03-11T08:45:55;1.50;;;1.40;;
30539;SDS011;17321;46.312;4.776;2023-03-11T08:48:21;3.03;;;2.03;;
30539;SDS011;17321;46.312;4.776;2023-03-11T08:50:49;1.80;;;1.70;;
30539;SDS011;17321;46.312;4.776;2023-03-11T08:53:15;3.55;;;1.77;;
30539;SDS011;17321;46.312;4.776;2023-03-11T08:55:41;2.10;;;2.00;;
30539;SDS011;17321;46.312;4.776;2023-03-11T08:58:08;2.58;;;2.38;;
30539;SDS011;17321;46.312;4.776;2023-03-11T09:00:34;3.13;;;2.40;;
30539;SDS011;17321;46.312;4.776;2023-03-11T09:03:00;3.08;;;2.78;;
30539;SDS011;17321;46.312;4.776;2023-03-11T09:05:26;3.58;;;3.28;;
30539;SDS011;17321;46.312;4.776;2023-03-11T09:07:52;4.40;;;3.70;;
30539;SDS011;17321;46.312;4.776;2023-03-11T09:10:18;3.58;;;3.28;;
30539;SDS011;17321;46.312;4.776;2023-03-11T09:12:44;3.30;;;3.00;;
30539;SDS011;17321;46.312;4.776;2023-03-11T09:15:10;4.00;;;3.70;;
30539;SDS011;17321;46.312;4.776;2023-03-11T09:17:36;4.65;;;3.95;;
30539;SDS011;17321;46.312;4.776;2023-03-11T09:20:03;7.03;;;4.15;;
30539;SDS011;17321;46.312;4.776;2023-03-11T09:22:29;4.13;;;3.72;;
30539;SDS011;17321;46.312;4.776;2023-03-11T09:24:56;4.18;;;3.60;;
30539;SDS011;17321;46.312;4.776;2023-03-11T09:27:22;4.57;;;4.18;;
30539;SDS011;17321;46.312;4.776;2023-03-11T09:29:49;4.57;;;4.15;;
30539;SDS011;17321;46.312;4.776;2023-03-11T09:32:15;3.75;;;3.45;;
30539;SDS011;17321;46.312;4.776;2023-03-11T09:34:41;4.15;;;3.75;;
30539;SDS011;17321;46.312;4.776;2023-03-11T09:37:07;3.65;;;3.20;;
30539;SDS011;17321;46.312;4.776;2023-03-11T09:39:33;3.72;;;3.42;;
30539;SDS011;17321;46.312;4.776;2023-03-11T09:42:04;3.78;;;3.47;;
30539;SDS011;17321;46.312;4.776;2023-03-11T09:44:40;3.58;;;3.22;;
30539;SDS011;17321;46.312;4.776;2023-03-11T09:47:54;4.47;;;3.90;;
30539;SDS011;17321;46.312;4.776;2023-03-11T09:55:34;4.38;;;3.97;;
30539;SDS011;17321;46.312;4.776;2023-03-11T09:58:12;6.47;;;3.90;;
30539;SDS011;17321;46.312;4.776;2023-03-11T10:00:40;4.32;;;3.63;;
30539;SDS011;17321;46.312;4.776;2023-03-11T10:03:11;4.53;;;4.13;;
30539;SDS011;17321;46.312;4.776;2023-03-11T10:05:38;4.15;;;3.67;;
30539;SDS011;17321;46.312;4.776;2023-03-11T10:08:16;5.18;;;3.75;;
30539;SDS011;17321;46.312;4.776;2023-03-11T10:10:47;6.15;;;4.00;;
30539;SDS011;17321;46.312;4.776;2023-03-11T10:13:22;3.92;;;3.63;;
30539;SDS011;17321;46.312;4.776;2023-03-11T10:16:37;3.70;;;3.40;;
30539;SDS011;17321;46.312;4.776;2023-03-11T10:18:47;3.50;;;3.20;;
30539;SDS011;17321;46.312;4.776;2023-03-11T10:21:28;3.25;;;3.05;;
30539;SDS011;17321;46.312;4.776;2023-03-11T10:29:52;4.60;;;3.60;;
30539;SDS011;17321;46.312;4.776;2023-03-11T10:37:29;2.63;;;2.42;;
30539;SDS011;17321;46.312;4.776;2023-03-11T10:40:01;3.38;;;3.10;;
30539;SDS011;17321;46.312;4.776;2023-03-11T10:42:29;3.10;;;2.83;;
30539;SDS011;17321;46.312;4.776;2023-03-11T10:44:57;5.20;;;4.28;;
30539;SDS011;17321;46.312;4.776;2023-03-11T10:47:26;3.50;;;3.20;;
30539;SDS011;17321;46.312;4.776;2023-03-11T10:49:53;3.17;;;2.88;;
30539;SDS011;17321;46.312;4.776;2023-03-11T10:52:20;3.33;;;2.70;;
30539;SDS011;17321;46.312;4.776;2023-03-11T10:54:47;5.05;;;3.22;;
30539;SDS011;17321;46.312;4.776;2023-03-11T10:59:46;3.50;;;3.20;;
30539;SDS011;17321;46.312;4.776;2023-03-11T11:02:25;3.55;;;3.25;;
30539;SDS011;17321;46.312;4.776;2023-03-11T11:07:37;4.07;;;3.28;;
30539;SDS011;17321;46.312;4.776;2023-03-11T11:10:21;3.47;;;3.17;;
30539;SDS011;17321;46.312;4.776;2023-03-11T11:15:21;4.38;;;2.85;;
30539;SDS011;17321;46.312;4.776;2023-03-11T11:17:48;4.03;;;3.65;;
30539;SDS011;17321;46.312;4.776;2023-03-11T11:20:15;3.45;;;3.15;;
30539;SDS011;17321;46.312;4.776;2023-03-11T11:22:59;4.20;;;3.67;;
30539;SDS011;17321;46.312;4.776;2023-03-11T11:25:35;6.43;;;3.05;;
30539;SDS011;17321;46.312;4.776;2023-03-11T11:28:15;5.10;;;3.35;;
30539;SDS011;17321;46.312;4.776;2023-03-11T11:36:34;3.22;;;2.70;;
30539;SDS011;17321;46.312;4.776;2023-03-11T11:39:00;3.15;;;2.95;;
30539;SDS011;17321;46.312;4.776;2023-03-11T11:41:29;3.78;;;2.90;;
30539;SDS011;17321;46.312;4.776;2023-03-11T11:43:57;3.70;;;3.30;;
30539;SDS011;17321;46.312;4.776;2023-03-11T11:46:41;3.33;;;3.03;;
30539;SDS011;17321;46.312;4.776;2023-03-11T11:49:15;6.78;;;5.60;;
30539;SDS011;17321;46.312;4.776;2023-03-11T11:51:43;4.75;;;4.22;;
30539;SDS011;17321;46.312;4.776;2023-03-11T11:54:26;5.00;;;4.30;;
30539;SDS011;17321;46.312;4.776;2023-03-11T11:56:55;4.45;;;4.05;;
30539;SDS011;17321;46.312;4.776;2023-03-11T11:59:21;3.97;;;3.58;;
30539;SDS011;17321;46.312;4.776;2023-03-11T12:17:16;3.10;;;2.83;;
30539;SDS011;17321;46.312;4.776;2023-03-11T12:25:03;2.60;;;2.40;;
30539;SDS011;17321;46.312;4.776;2023-03-11T12:27:30;2.40;;;2.20;;
30539;SDS011;17321;46.312;4.776;2023-03-11T12:29:58;2.42;;;2.20;;
30539;SDS011;17321;46.312;4.776;2023-03-11T12:32:31;4.70;;;2.40;;
30539;SDS011;17321;46.312;4.776;2023-03-11T12:35:02;2.45;;;2.05;;
30539;SDS011;17321;46.312;4.776;2023-03-11T12:37:35;2.22;;;2.03;;
30539;SDS011;17321;46.312;4.776;2023-03-11T12:40:37;6.38;;;1.98;;
30539;SDS011;17321;46.312;4.776;2023-03-11T12:42:47;1.88;;;1.77;;
30539;SDS011;17321;46.312;4.776;2023-03-11T12:45:39;1.35;;;1.25;;
30539;SDS011;17321;46.312;4.776;2023-03-11T12:50:46;1.75;;;1.65;;
30539;SDS011;17321;46.312;4.776;2023-03-11T12:53:16;1.85;;;1.67;;
30539;SDS011;17321;46.312;4.776;2023-03-11T12:55:59;2.72;;;1.80;;
30539;SDS011;17321;46.312;4.776;2023-03-11T13:01:02;1.52;;;1.40;;
30539;SDS011;17321;46.312;4.776;2023-03-11T13:03:36;2.17;;;1.98;;
30539;SDS011;17321;46.312;4.776;2023-03-11T13:11:27;3.97;;;1.83;;
30539;SDS011;17321;46.312;4.776;2023-03-11T13:14:07;3.50;;;1.95;;
30539;SDS011;17321;46.312;4.776;2023-03-11T13:16:37;4.55;;;2.22;;
30539;SDS011;17321;46.312;4.776;2023-03-11T13:21:48;2.90;;;2.15;;
30539;SDS011;17321;46.312;4.776;2023-03-11T13:37:04;1.70;;;1.42;;
30539;SDS011;17321;46.312;4.776;2023-03-11T13:44:45;2.05;;;1.88;;
30539;SDS011;17321;46.312;4.776;2023-03-11T13:47:13;2.50;;;2.30;;
30539;SDS011;17321;46.312;4.776;2023-03-11T13:52:11;5.25;;;1.88;;
30539;SDS011;17321;46.312;4.776;2023-03-11T13:54:41;5.95;;;2.17;;
30539;SDS011;17321;46.312;4.776;2023-03-11T13:57:14;3.00;;;2.03;;
30539;SDS011;17321;46.312;4.776;2023-03-11T13:59:43;2.22;;;2.03;;
30539;SDS011;17321;46.312;4.776;2023-03-11T14:02:16;2.03;;;1.83;;
30539;SDS011;17321;46.312;4.776;2023-03-11T14:04:47;3.47;;;2.20;;
30539;SDS011;17321;46.312;4.776;2023-03-11T14:09:45;2.55;;;2.05;;
30539;SDS011;17321;46.312;4.776;2023-03-11T14:12:11;2.28;;;2.08;;
30539;SDS011;17321;46.312;4.776;2023-03-11T14:14:50;2.60;;;1.75;;
30539;SDS011;17321;46.312;4.776;2023-03-11T14:17:19;3.50;;;2.25;;
30539;SDS011;17321;46.312;4.776;2023-03-11T14:22:31;3.55;;;2.20;;
30539;SDS011;17321;46.312;4.776;2023-03-11T14:24:58;3.38;;;2.60;;
30539;SDS011;17321;46.312;4.776;2023-03-11T14:27:38;1.70;;;1.60;;
30539;SDS011;17321;46.312;4.776;2023-03-11T14:30:04;5.13;;;2.70;;
30539;SDS011;17321;46.312;4.776;2023-03-11T14:32:33;1.73;;;1.63;;
30539;SDS011;17321;46.312;4.776;2023-03-11T14:35:00;2.75;;;1.83;;
30539;SDS011;17321;46.312;4.776;2023-03-11T14:39:56;2.55;;;1.92;;
30539;SDS011;17321;46.312;4.776;2023-03-11T14:42:24;2.20;;;2.00;;
30539;SDS011;17321;46.312;4.776;2023-03-11T14:44:57;2.55;;;2.33;;
30539;SDS011;17321;46.312;4.776;2023-03-11T14:49:55;3.35;;;1.85;;
30539;SDS011;17321;46.312;4.776;2023-03-11T14:52:32;1.88;;;1.77;;
30539;SDS011;17321;46.312;4.776;2023-03-11T14:55:02;2.30;;;2.10;;
30539;SDS011;17321;46.312;4.776;2023-03-11T14:57:35;2.30;;;2.10;;
30539;SDS011;17321;46.312;4.776;2023-03-11T15:00:03;4.88;;;1.80;;
30539;SDS011;17321;46.312;4.776;2023-03-11T15:04:59;5.63;;;1.77;;
30539;SDS011;17321;46.312;4.776;2023-03-11T15:07:27;5.88;;;2.00;;
30539;SDS011;17321;46.312;4.776;2023-03-11T15:09:54;2.42;;;2.22;;
30539;SDS011;17321;46.312;4.776;2023-03-11T15:12:34;2.28;;;2.13;;
30539;SDS011;17321;46.312;4.776;2023-03-11T15:15:19;2.78;;;2.10;;
30539;SDS011;17321;46.312;4.776;2023-03-11T15:17:52;2.42;;;2.22;;
30539;SDS011;17321;46.312;4.776;2023-03-11T15:20:27;1.83;;;1.73;;
30539;SDS011;17321;46.312;4.776;2023-03-11T15:22:55;2.97;;;2.20;;
30539;SDS011;17321;46.312;4.776;2023-03-11T15:25:24;2.40;;;2.20;;
30539;SDS011;17321;46.312;4.776;2023-03-11T15:27:50;4.35;;;2.10;;
30539;SDS011;17321;46.312;4.776;2023-03-11T15:30:18;2.67;;;2.30;;
30539;SDS011;17321;46.312;4.776;2023-03-11T15:32:45;2.78;;;1.73;;
30539;SDS011;17321;46.312;4.776;2023-03-11T15:35:17;2.55;;;1.80;;
30539;SDS011;17321;46.312;4.776;2023-03-11T15:37:43;1.83;;;1.60;;
30539;SDS011;17321;46.312;4.776;2023-03-11T15:42:45;2.17;;;1.92;;
30539;SDS011;17321;46.312;4.776;2023-03-11T15:47:38;1.63;;;1.50;;
30539;SDS011;17321;46.312;4.776;2023-03-11T15:50:14;2.25;;;1.92;;
30539;SDS011;17321;46.312;4.776;2023-03-11T15:52:40;2.47;;;2.03;;
30539;SDS011;17321;46.312;4.776;2023-03-11T15:55:07;2.25;;;1.80;;
30539;SDS011;17321;46.312;4.776;2023-03-11T15:57:35;3.00;;;1.95;;
30539;SDS011;17321;46.312;4.776;2023-03-11T16:00:02;2.63;;;1.50;;
30539;SDS011;17321;46.312;4.776;2023-03-11T16:02:29;2.00;;;1.80;;
30539;SDS011;17321;46.312;4.776;2023-03-11T16:04:56;3.92;;;1.48;;
30539;SDS011;17321;46.312;4.776;2023-03-11T16:07:22;1.52;;;1.40;;
30539;SDS011;17321;46.312;4.776;2023-03-11T16:09:49;3.22;;;1.63;;
30539;SDS011;17321;46.312;4.776;2023-03-11T16:12:21;1.75;;;1.30;;
30539;SDS011;17321;46.312;4.776;2023-03-11T16:14:50;3.72;;;1.42;;
30539;SDS011;17321;46.312;4.776;2023-03-11T16:17:16;5.33;;;1.97;;
30539;SDS011;17321;46.312;4.776;2023-03-11T16:19:45;2.97;;;1.33;;
30539;SDS011;17321;46.312;4.776;2023-03-11T16:22:15;2.58;;;1.50;;
30539;SDS011;17321;46.312;4.776;2023-03-11T16:24:42;1.52;;;1.40;;
30539;SDS011;17321;46.312;4.776;2023-03-11T16:27:12;2.47;;;1.27;;
30539;SDS011;17321;46.312;4.776;2023-03-11T16:29:41;2.45;;;1.45;;
30539;SDS011;17321;46.312;4.776;2023-03-11T16:32:07;2.28;;;1.42;;
30539;SDS011;17321;46.312;4.776;2023-03-11T16:34:35;2.50;;;1.58;;
30539;SDS011;17321;46.312;4.776;2023-03-11T16:37:02;4.38;;;1.88;;
30539;SDS011;17321;46.312;4.776;2023-03-11T16:39:29;2.28;;;1.63;;
30539;SDS011;17321;46.312;4.776;2023-03-11T16:41:55;5.10;;;1.92;;